sensor_id;sensor_type;location;lat;lon;timestamp;P1;durP1;ratioP1;P2;durP2;ratioP2
73699;SDS011;62005;50.082;8.988;2023-02-14T00:02:03;8.23;;;4.28;;
73699;SDS011;62005;50.082;8.988;2023-02-14T00:04:29;8.75;;;4.40;;
73699;SDS011;62005;50.082;8.988;2023-02-14T00:06:55;9.20;;;3.80;;
73699;SDS011;62005;50.082;8.988;2023-02-14T00:09:20;10.35;;;4.47;;
73699;SDS011;62005;50.082;8.988;2023-02-14T00:11:45;9.60;;;4.17;;
73699;SDS011;62005;50.082;8.988;2023-02-14T00:14:11;10.27;;;4.07;;
73699;SDS011;62005;50.082;8.988;2023-02-14T00:16:56;9.95;;;4.20;;
73699;SDS011;62005;50.082;8.988;2023-02-14T00:19:22;11.90;;;5.40;;
73699;SDS011;62005;50.082;8.988;2023-02-14T00:21:48;11.48;;;5.40;;
73699;SDS011;62005;50.082;8.988;2023-02-14T00:24:18;11.27;;;5.03;;
73699;SDS011;62005;50.082;8.988;2023-02-14T00:26:45;10.40;;;5.03;;
73699;SDS011;62005;50.082;8.988;2023-02-14T00:29:12;7.00;;;4.45;;
73699;SDS011;62005;50.082;8.988;2023-02-14T00:31:40;7.60;;;4.38;;
73699;SDS011;62005;50.082;8.988;2023-02-14T00:34:07;10.07;;;5.00;;
73699;SDS011;62005;50.082;8.988;2023-02-14T00:36:32;11.80;;;3.85;;
73699;SDS011;62005;50.082;8.988;2023-02-14T00:38:58;9.05;;;4.40;;
73699;SDS011;62005;50.082;8.988;2023-02-14T00:41:25;10.77;;;4.15;;
73699;SDS011;62005;50.082;8.988;2023-02-14T00:43:51;14.57;;;4.57;;
73699;SDS011;62005;50.082;8.988;2023-02-14T00:46:18;13.18;;;4.00;;
73699;SDS011;62005;50.082;8.988;2023-02-14T00:48:45;10.60;;;3.95;;
73699;SDS011;62005;50.082;8.988;2023-02-14T00:51:11;9.18;;;4.40;;
73699;SDS011;62005;50.082;8.988;2023-02-14T00:53:37;9.30;;;4.07;;
73699;SDS011;62005;50.082;8.988;2023-02-14T00:56:02;10.05;;;4.20;;
73699;SDS011;62005;50.082;8.988;2023-02-14T00:58:28;7.97;;;4.28;;
73699;SDS011;62005;50.082;8.988;2023-02-14T01:00:54;7.38;;;3.55;;
73699;SDS011;62005;50.082;8.988;2023-02-14T01:03:20;7.00;;;3.83;;
73699;SDS011;62005;50.082;8.988;2023-02-14T01:05:46;7.28;;;4.10;;
73699;SDS011;62005;50.082;8.988;2023-02-14T01:08:11;7.68;;;3.53;;
73699;SDS011;62005;50.082;8.988;2023-02-14T01:10:37;6.53;;;3.80;;
73699;SDS011;62005;50.082;8.988;2023-02-14T01:13:03;7.13;;;3.70;;
73699;SDS011;62005;50.082;8.988;2023-02-14T01:15:28;9.75;;;3.95;;
73699;SDS011;62005;50.082;8.988;2023-02-14T01:17:55;6.60;;;3.75;;
73699;SDS011;62005;50.082;8.988;2023-02-14T01:20:21;8.90;;;4.25;;
73699;SDS011;62005;50.082;8.988;2023-02-14T01:22:46;8.77;;;4.07;;
73699;SDS011;62005;50.082;8.988;2023-02-14T01:25:12;7.23;;;2.97;;
73699;SDS011;62005;50.082;8.988;2023-02-14T01:27:37;7.30;;;2.83;;
73699;SDS011;62005;50.082;8.988;2023-02-14T01:30:03;7.88;;;4.22;;
73699;SDS011;62005;50.082;8.988;2023-02-14T01:32:29;9.75;;;4.45;;
73699;SDS011;62005;50.082;8.988;2023-02-14T01:34:56;8.20;;;4.15;;
73699;SDS011;62005;50.082;8.988;2023-02-14T01:37:21;7.40;;;4.27;;
73699;SDS011;62005;50.082;8.988;2023-02-14T01:39:46;8.33;;;5.37;;
73699;SDS011;62005;50.082;8.988;2023-02-14T01:42:12;8.30;;;4.13;;
73699;SDS011;62005;50.082;8.988;2023-02-14T01:47:03;10.83;;;4.90;;
73699;SDS011;62005;50.082;8.988;2023-02-14T01:49:36;7.65;;;3.88;;
73699;SDS011;62005;50.082;8.988;2023-02-14T01:52:05;9.77;;;4.72;;
73699;SDS011;62005;50.082;8.988;2023-02-14T01:54:37;8.95;;;4.43;;
73699;SDS011;62005;50.082;8.988;2023-02-14T01:57:07;11.35;;;5.32;;
73699;SDS011;62005;50.082;8.988;2023-02-14T01:59:36;9.13;;;4.43;;
73699;SDS011;62005;50.082;8.988;2023-02-14T02:02:04;10.50;;;4.50;;
73699;SDS011;62005;50.082;8.988;2023-02-14T02:04:36;9.48;;;4.95;;
73699;SDS011;62005;50.082;8.988;2023-02-14T02:07:08;7.53;;;4.20;;
73699;SDS011;62005;50.082;8.988;2023-02-14T02:09:38;8.57;;;4.85;;
73699;SDS011;62005;50.082;8.988;2023-02-14T02:12:08;10.25;;;4.90;;
73699;SDS011;62005;50.082;8.988;2023-02-14T02:14:34;9.55;;;5.43;;
73699;SDS011;62005;50.082;8.988;2023-02-14T02:17:06;12.25;;;5.43;;
73699;SDS011;62005;50.082;8.988;2023-02-14T02:25:11;10.20;;;4.55;;
73699;SDS011;62005;50.082;8.988;2023-02-14T02:28:12;12.85;;;5.80;;
73699;SDS011;62005;50.082;8.988;2023-02-14T02:33:48;9.20;;;4.78;;
73699;SDS011;62005;50.082;8.988;2023-02-14T02:42:05;10.60;;;6.05;;
73699;SDS011;62005;50.082;8.988;2023-02-14T02:44:51;13.73;;;5.75;;
73699;SDS011;62005;50.082;8.988;2023-02-14T02:50:29;11.68;;;5.70;;
73699;SDS011;62005;50.082;8.988;2023-02-14T02:55:49;10.68;;;5.38;;
73699;SDS011;62005;50.082;8.988;2023-02-14T02:58:42;10.90;;;6.05;;
73699;SDS011;62005;50.082;8.988;2023-02-14T03:01:34;9.77;;;5.20;;
73699;SDS011;62005;50.082;8.988;2023-02-14T03:04:04;8.27;;;4.32;;
73699;SDS011;62005;50.082;8.988;2023-02-14T03:06:50;10.30;;;5.05;;
73699;SDS011;62005;50.082;8.988;2023-02-14T03:11:46;12.35;;;5.45;;
73699;SDS011;62005;50.082;8.988;2023-02-14T03:17:06;11.35;;;5.13;;
73699;SDS011;62005;50.082;8.988;2023-02-14T03:19:46;11.25;;;4.93;;
73699;SDS011;62005;50.082;8.988;2023-02-14T03:34:07;9.98;;;5.13;;
73699;SDS011;62005;50.082;8.988;2023-02-14T03:36:55;11.75;;;4.88;;
73699;SDS011;62005;50.082;8.988;2023-02-14T03:42:16;9.15;;;4.60;;
73699;SDS011;62005;50.082;8.988;2023-02-14T03:44:46;10.38;;;5.30;;
73699;SDS011;62005;50.082;8.988;2023-02-14T03:47:13;9.90;;;4.95;;
73699;SDS011;62005;50.082;8.988;2023-02-14T03:49:47;10.25;;;4.78;;
73699;SDS011;62005;50.082;8.988;2023-02-14T03:52:17;10.88;;;4.53;;
73699;SDS011;62005;50.082;8.988;2023-02-14T03:54:45;12.82;;;6.80;;
73699;SDS011;62005;50.082;8.988;2023-02-14T03:59:49;10.00;;;4.93;;
73699;SDS011;62005;50.082;8.988;2023-02-14T04:04:55;8.57;;;4.35;;
73699;SDS011;62005;50.082;8.988;2023-02-14T04:07:22;10.75;;;6.50;;
73699;SDS011;62005;50.082;8.988;2023-02-14T04:09:48;10.25;;;5.32;;
73699;SDS011;62005;50.082;8.988;2023-02-14T04:12:15;10.82;;;5.90;;
73699;SDS011;62005;50.082;8.988;2023-02-14T04:14:41;11.40;;;5.15;;
73699;SDS011;62005;50.082;8.988;2023-02-14T04:17:07;9.48;;;5.25;;
73699;SDS011;62005;50.082;8.988;2023-02-14T04:19:51;11.57;;;5.07;;
73699;SDS011;62005;50.082;8.988;2023-02-14T04:22:16;13.15;;;4.95;;
73699;SDS011;62005;50.082;8.988;2023-02-14T04:24:42;9.77;;;5.40;;
73699;SDS011;62005;50.082;8.988;2023-02-14T04:27:08;9.37;;;4.70;;
73699;SDS011;62005;50.082;8.988;2023-02-14T04:32:06;10.10;;;4.68;;
73699;SDS011;62005;50.082;8.988;2023-02-14T04:34:33;14.25;;;4.03;;
73699;SDS011;62005;50.082;8.988;2023-02-14T04:36:58;7.10;;;3.67;;
73699;SDS011;62005;50.082;8.988;2023-02-14T04:39:24;9.67;;;4.90;;
73699;SDS011;62005;50.082;8.988;2023-02-14T04:41:50;9.43;;;4.30;;
73699;SDS011;62005;50.082;8.988;2023-02-14T04:44:15;10.43;;;4.13;;
73699;SDS011;62005;50.082;8.988;2023-02-14T04:46:40;10.47;;;5.43;;
73699;SDS011;62005;50.082;8.988;2023-02-14T04:49:06;13.70;;;4.77;;
73699;SDS011;62005;50.082;8.988;2023-02-14T04:51:31;9.30;;;4.43;;
73699;SDS011;62005;50.082;8.988;2023-02-14T04:53:56;9.73;;;4.23;;
73699;SDS011;62005;50.082;8.988;2023-02-14T04:56:21;9.73;;;4.27;;
73699;SDS011;62005;50.082;8.988;2023-02-14T04:58:47;11.27;;;5.10;;
73699;SDS011;62005;50.082;8.988;2023-02-14T05:01:12;9.30;;;4.50;;
73699;SDS011;62005;50.082;8.988;2023-02-14T05:03:37;10.87;;;5.03;;
73699;SDS011;62005;50.082;8.988;2023-02-14T05:06:03;11.17;;;3.90;;
73699;SDS011;62005;50.082;8.988;2023-02-14T05:08:28;9.80;;;4.87;;
73699;SDS011;62005;50.082;8.988;2023-02-14T05:10:53;9.23;;;3.93;;
73699;SDS011;62005;50.082;8.988;2023-02-14T05:13:19;10.77;;;4.88;;
73699;SDS011;62005;50.082;8.988;2023-02-14T05:15:44;12.80;;;5.07;;
73699;SDS011;62005;50.082;8.988;2023-02-14T05:18:10;11.18;;;4.20;;
73699;SDS011;62005;50.082;8.988;2023-02-14T05:20:35;10.00;;;4.63;;
73699;SDS011;62005;50.082;8.988;2023-02-14T05:23:01;14.60;;;5.27;;
73699;SDS011;62005;50.082;8.988;2023-02-14T05:25:28;13.07;;;4.68;;
73699;SDS011;62005;50.082;8.988;2023-02-14T05:27:54;14.05;;;5.80;;
73699;SDS011;62005;50.082;8.988;2023-02-14T05:30:20;12.30;;;5.85;;
73699;SDS011;62005;50.082;8.988;2023-02-14T05:32:51;13.85;;;5.28;;
73699;SDS011;62005;50.082;8.988;2023-02-14T05:35:17;14.70;;;5.72;;
73699;SDS011;62005;50.082;8.988;2023-02-14T05:37:42;13.90;;;5.83;;
73699;SDS011;62005;50.082;8.988;2023-02-14T05:40:08;13.20;;;5.90;;
73699;SDS011;62005;50.082;8.988;2023-02-14T05:42:34;14.80;;;7.07;;
73699;SDS011;62005;50.082;8.988;2023-02-14T05:44:59;15.53;;;6.63;;
73699;SDS011;62005;50.082;8.988;2023-02-14T05:47:24;18.57;;;7.03;;
73699;SDS011;62005;50.082;8.988;2023-02-14T05:49:49;20.57;;;7.03;;
73699;SDS011;62005;50.082;8.988;2023-02-14T05:52:15;17.43;;;6.77;;
73699;SDS011;62005;50.082;8.988;2023-02-14T05:54:40;17.02;;;7.32;;
73699;SDS011;62005;50.082;8.988;2023-02-14T05:57:05;16.50;;;6.73;;
73699;SDS011;62005;50.082;8.988;2023-02-14T05:59:31;15.73;;;7.03;;
73699;SDS011;62005;50.082;8.988;2023-02-14T06:01:56;16.10;;;5.73;;
73699;SDS011;62005;50.082;8.988;2023-02-14T06:04:21;18.93;;;7.93;;
73699;SDS011;62005;50.082;8.988;2023-02-14T06:06:47;20.47;;;7.47;;
73699;SDS011;62005;50.082;8.988;2023-02-14T06:09:12;17.93;;;6.80;;
73699;SDS011;62005;50.082;8.988;2023-02-14T06:11:37;16.60;;;6.72;;
73699;SDS011;62005;50.082;8.988;2023-02-14T06:14:03;20.93;;;7.40;;
73699;SDS011;62005;50.082;8.988;2023-02-14T06:16:28;17.67;;;7.00;;
73699;SDS011;62005;50.082;8.988;2023-02-14T06:18:53;17.70;;;6.83;;
73699;SDS011;62005;50.082;8.988;2023-02-14T06:21:19;17.57;;;7.17;;
73699;SDS011;62005;50.082;8.988;2023-02-14T06:23:44;14.77;;;7.90;;
73699;SDS011;62005;50.082;8.988;2023-02-14T06:26:09;17.07;;;6.50;;
73699;SDS011;62005;50.082;8.988;2023-02-14T06:28:35;17.17;;;7.37;;
73699;SDS011;62005;50.082;8.988;2023-02-14T06:31:00;21.83;;;9.30;;
73699;SDS011;62005;50.082;8.988;2023-02-14T06:33:25;44.57;;;17.70;;
73699;SDS011;62005;50.082;8.988;2023-02-14T06:35:52;27.47;;;11.37;;
73699;SDS011;62005;50.082;8.988;2023-02-14T06:38:18;23.08;;;9.68;;
73699;SDS011;62005;50.082;8.988;2023-02-14T06:40:43;19.33;;;8.23;;
73699;SDS011;62005;50.082;8.988;2023-02-14T06:43:08;17.17;;;8.07;;
73699;SDS011;62005;50.082;8.988;2023-02-14T06:45:34;16.97;;;7.03;;
73699;SDS011;62005;50.082;8.988;2023-02-14T06:47:59;16.85;;;8.18;;
73699;SDS011;62005;50.082;8.988;2023-02-14T06:50:24;16.03;;;7.00;;
73699;SDS011;62005;50.082;8.988;2023-02-14T06:52:50;19.00;;;7.37;;
73699;SDS011;62005;50.082;8.988;2023-02-14T06:55:15;16.63;;;7.47;;
73699;SDS011;62005;50.082;8.988;2023-02-14T06:57:41;18.35;;;7.25;;
73699;SDS011;62005;50.082;8.988;2023-02-14T07:00:06;13.50;;;6.47;;
73699;SDS011;62005;50.082;8.988;2023-02-14T07:02:33;15.25;;;6.53;;
73699;SDS011;62005;50.082;8.988;2023-02-14T07:04:59;13.65;;;7.25;;
73699;SDS011;62005;50.082;8.988;2023-02-14T07:07:24;12.30;;;6.33;;
73699;SDS011;62005;50.082;8.988;2023-02-14T07:09:50;12.93;;;7.00;;
73699;SDS011;62005;50.082;8.988;2023-02-14T07:12:16;14.35;;;6.95;;
73699;SDS011;62005;50.082;8.988;2023-02-14T07:14:41;14.25;;;6.45;;
73699;SDS011;62005;50.082;8.988;2023-02-14T07:17:06;13.80;;;6.73;;
73699;SDS011;62005;50.082;8.988;2023-02-14T07:19:32;15.40;;;6.63;;
73699;SDS011;62005;50.082;8.988;2023-02-14T07:21:57;20.17;;;7.30;;
73699;SDS011;62005;50.082;8.988;2023-02-14T07:24:22;15.23;;;7.10;;
73699;SDS011;62005;50.082;8.988;2023-02-14T07:26:48;17.02;;;6.35;;
73699;SDS011;62005;50.082;8.988;2023-02-14T07:29:13;14.47;;;6.30;;
73699;SDS011;62005;50.082;8.988;2023-02-14T07:31:39;17.13;;;6.50;;
73699;SDS011;62005;50.082;8.988;2023-02-14T07:34:04;18.50;;;7.40;;
73699;SDS011;62005;50.082;8.988;2023-02-14T07:36:29;13.50;;;5.03;;
73699;SDS011;62005;50.082;8.988;2023-02-14T07:38:55;13.60;;;5.80;;
73699;SDS011;62005;50.082;8.988;2023-02-14T07:41:21;16.98;;;7.03;;
73699;SDS011;62005;50.082;8.988;2023-02-14T07:43:47;15.35;;;6.95;;
73699;SDS011;62005;50.082;8.988;2023-02-14T07:46:12;13.73;;;4.97;;
73699;SDS011;62005;50.082;8.988;2023-02-14T07:48:38;12.95;;;6.40;;
73699;SDS011;62005;50.082;8.988;2023-02-14T07:51:03;15.27;;;6.00;;
73699;SDS011;62005;50.082;8.988;2023-02-14T07:53:29;17.50;;;6.38;;
73699;SDS011;62005;50.082;8.988;2023-02-14T07:55:54;12.40;;;5.95;;
73699;SDS011;62005;50.082;8.988;2023-02-14T07:58:20;12.33;;;5.50;;
73699;SDS011;62005;50.082;8.988;2023-02-14T08:00:45;14.00;;;5.60;;
73699;SDS011;62005;50.082;8.988;2023-02-14T08:03:11;11.30;;;5.53;;
73699;SDS011;62005;50.082;8.988;2023-02-14T08:05:37;15.00;;;5.25;;
73699;SDS011;62005;50.082;8.988;2023-02-14T08:08:02;13.18;;;5.47;;
73699;SDS011;62005;50.082;8.988;2023-02-14T08:10:27;11.43;;;5.20;;
73699;SDS011;62005;50.082;8.988;2023-02-14T08:12:53;13.77;;;6.00;;
73699;SDS011;62005;50.082;8.988;2023-02-14T08:15:25;11.57;;;5.90;;
73699;SDS011;62005;50.082;8.988;2023-02-14T08:18:14;11.07;;;4.75;;
73699;SDS011;62005;50.082;8.988;2023-02-14T08:20:42;11.27;;;4.57;;
73699;SDS011;62005;50.082;8.988;2023-02-14T08:23:08;12.57;;;4.57;;
73699;SDS011;62005;50.082;8.988;2023-02-14T08:25:33;9.90;;;4.30;;
73699;SDS011;62005;50.082;8.988;2023-02-14T08:28:00;10.67;;;4.63;;
73699;SDS011;62005;50.082;8.988;2023-02-14T08:30:26;10.77;;;4.25;;
73699;SDS011;62005;50.082;8.988;2023-02-14T08:32:52;10.25;;;4.70;;
73699;SDS011;62005;50.082;8.988;2023-02-14T08:35:18;11.17;;;4.83;;
73699;SDS011;62005;50.082;8.988;2023-02-14T08:37:43;12.53;;;5.17;;
73699;SDS011;62005;50.082;8.988;2023-02-14T08:40:08;11.47;;;4.60;;
73699;SDS011;62005;50.082;8.988;2023-02-14T08:42:34;11.95;;;5.20;;
73699;SDS011;62005;50.082;8.988;2023-02-14T08:44:59;10.90;;;4.97;;
73699;SDS011;62005;50.082;8.988;2023-02-14T08:47:24;11.13;;;4.93;;
73699;SDS011;62005;50.082;8.988;2023-02-14T08:49:50;9.93;;;4.57;;
73699;SDS011;62005;50.082;8.988;2023-02-14T08:52:15;12.20;;;4.83;;
73699;SDS011;62005;50.082;8.988;2023-02-14T08:54:41;10.07;;;4.38;;
73699;SDS011;62005;50.082;8.988;2023-02-14T08:57:06;10.63;;;4.72;;
73699;SDS011;62005;50.082;8.988;2023-02-14T08:59:32;10.93;;;4.63;;
73699;SDS011;62005;50.082;8.988;2023-02-14T09:01:58;11.27;;;4.72;;
73699;SDS011;62005;50.082;8.988;2023-02-14T09:04:23;10.87;;;4.60;;
73699;SDS011;62005;50.082;8.988;2023-02-14T09:06:48;13.43;;;4.73;;
73699;SDS011;62005;50.082;8.988;2023-02-14T09:09:14;12.73;;;5.03;;
73699;SDS011;62005;50.082;8.988;2023-02-14T09:11:41;11.60;;;4.75;;
73699;SDS011;62005;50.082;8.988;2023-02-14T09:14:07;13.77;;;4.93;;
73699;SDS011;62005;50.082;8.988;2023-02-14T09:16:33;9.93;;;4.35;;
73699;SDS011;62005;50.082;8.988;2023-02-14T09:18:58;12.55;;;4.32;;
73699;SDS011;62005;50.082;8.988;2023-02-14T09:21:24;13.23;;;4.80;;
73699;SDS011;62005;50.082;8.988;2023-02-14T09:26:17;12.75;;;4.85;;
73699;SDS011;62005;50.082;8.988;2023-02-14T09:28:43;13.75;;;4.35;;
73699;SDS011;62005;50.082;8.988;2023-02-14T09:31:09;12.32;;;4.85;;
73699;SDS011;62005;50.082;8.988;2023-02-14T09:33:38;11.40;;;4.65;;
73699;SDS011;62005;50.082;8.988;2023-02-14T09:36:09;11.77;;;4.60;;
73699;SDS011;62005;50.082;8.988;2023-02-14T09:38:37;12.95;;;4.95;;
73699;SDS011;62005;50.082;8.988;2023-02-14T09:41:07;12.07;;;5.15;;
73699;SDS011;62005;50.082;8.988;2023-02-14T09:43:48;11.68;;;5.30;;
73699;SDS011;62005;50.082;8.988;2023-02-14T09:46:19;12.75;;;4.75;;
73699;SDS011;62005;50.082;8.988;2023-02-14T09:48:47;10.10;;;4.32;;
73699;SDS011;62005;50.082;8.988;2023-02-14T09:51:15;14.45;;;5.47;;
73699;SDS011;62005;50.082;8.988;2023-02-14T09:53:44;11.23;;;4.70;;
73699;SDS011;62005;50.082;8.988;2023-02-14T09:56:18;15.70;;;5.60;;
73699;SDS011;62005;50.082;8.988;2023-02-14T10:01:22;11.88;;;4.78;;
73699;SDS011;62005;50.082;8.988;2023-02-14T10:03:57;11.43;;;4.38;;
73699;SDS011;62005;50.082;8.988;2023-02-14T10:06:47;11.82;;;4.88;;
73699;SDS011;62005;50.082;8.988;2023-02-14T10:11:53;11.13;;;3.92;;
73699;SDS011;62005;50.082;8.988;2023-02-14T10:14:23;12.10;;;6.13;;
73699;SDS011;62005;50.082;8.988;2023-02-14T10:17:55;11.57;;;4.72;;
73699;SDS011;62005;50.082;8.988;2023-02-14T10:20:05;12.88;;;5.65;;
73699;SDS011;62005;50.082;8.988;2023-02-14T10:23:34;14.00;;;4.95;;
73699;SDS011;62005;50.082;8.988;2023-02-14T10:26:09;16.25;;;5.97;;
73699;SDS011;62005;50.082;8.988;2023-02-14T10:28:49;15.02;;;6.65;;
73699;SDS011;62005;50.082;8.988;2023-02-14T10:33:54;14.02;;;5.65;;
73699;SDS011;62005;50.082;8.988;2023-02-14T10:39:36;19.13;;;6.05;;
73699;SDS011;62005;50.082;8.988;2023-02-14T10:44:57;14.45;;;6.43;;
73699;SDS011;62005;50.082;8.988;2023-02-14T10:55:18;13.15;;;5.80;;
73699;SDS011;62005;50.082;8.988;2023-02-14T10:57:50;13.48;;;5.55;;
73699;SDS011;62005;50.082;8.988;2023-02-14T11:00:20;12.50;;;6.10;;
73699;SDS011;62005;50.082;8.988;2023-02-14T11:02:49;15.05;;;5.13;;
73699;SDS011;62005;50.082;8.988;2023-02-14T11:07:58;15.93;;;6.43;;
73699;SDS011;62005;50.082;8.988;2023-02-14T11:10:25;14.82;;;6.07;;
73699;SDS011;62005;50.082;8.988;2023-02-14T11:12:52;13.00;;;5.03;;
73699;SDS011;62005;50.082;8.988;2023-02-14T11:15:19;12.68;;;5.70;;
73699;SDS011;62005;50.082;8.988;2023-02-14T11:17:48;15.07;;;6.47;;
73699;SDS011;62005;50.082;8.988;2023-02-14T11:22:47;14.48;;;5.47;;
73699;SDS011;62005;50.082;8.988;2023-02-14T11:25:26;11.18;;;5.00;;
73699;SDS011;62005;50.082;8.988;2023-02-14T11:27:57;15.82;;;5.18;;
73699;SDS011;62005;50.082;8.988;2023-02-14T11:33:02;13.48;;;5.82;;
73699;SDS011;62005;50.082;8.988;2023-02-14T11:35:29;17.20;;;5.85;;
73699;SDS011;62005;50.082;8.988;2023-02-14T11:38:03;14.10;;;5.78;;
73699;SDS011;62005;50.082;8.988;2023-02-14T11:40:32;15.55;;;5.68;;
73699;SDS011;62005;50.082;8.988;2023-02-14T11:45:35;12.55;;;5.78;;
73699;SDS011;62005;50.082;8.988;2023-02-14T11:48:07;13.50;;;5.93;;
73699;SDS011;62005;50.082;8.988;2023-02-14T11:50:38;13.73;;;5.80;;
73699;SDS011;62005;50.082;8.988;2023-02-14T11:53:07;14.38;;;6.05;;
73699;SDS011;62005;50.082;8.988;2023-02-14T11:55:36;14.57;;;5.70;;
73699;SDS011;62005;50.082;8.988;2023-02-14T11:58:02;13.30;;;5.63;;
73699;SDS011;62005;50.082;8.988;2023-02-14T12:00:29;16.23;;;6.32;;
73699;SDS011;62005;50.082;8.988;2023-02-14T12:02:57;17.02;;;5.78;;
73699;SDS011;62005;50.082;8.988;2023-02-14T12:05:27;14.52;;;6.45;;
73699;SDS011;62005;50.082;8.988;2023-02-14T12:07:58;14.00;;;5.90;;
73699;SDS011;62005;50.082;8.988;2023-02-14T12:10:27;14.60;;;6.47;;
73699;SDS011;62005;50.082;8.988;2023-02-14T12:13:01;17.08;;;6.15;;
73699;SDS011;62005;50.082;8.988;2023-02-14T12:23:58;12.95;;;5.68;;
73699;SDS011;62005;50.082;8.988;2023-02-14T12:29:45;13.35;;;5.72;;
73699;SDS011;62005;50.082;8.988;2023-02-14T12:35:02;14.13;;;5.25;;
73699;SDS011;62005;50.082;8.988;2023-02-14T12:37:53;11.63;;;5.18;;
73699;SDS011;62005;50.082;8.988;2023-02-14T12:51:31;17.67;;;6.45;;
73699;SDS011;62005;50.082;8.988;2023-02-14T13:02:53;11.52;;;5.03;;
73699;SDS011;62005;50.082;8.988;2023-02-14T13:10:50;15.63;;;6.35;;
73699;SDS011;62005;50.082;8.988;2023-02-14T13:21:13;15.82;;;6.38;;
73699;SDS011;62005;50.082;8.988;2023-02-14T13:23:47;16.55;;;6.28;;
73699;SDS011;62005;50.082;8.988;2023-02-14T13:26:36;14.88;;;5.88;;
73699;SDS011;62005;50.082;8.988;2023-02-14T13:29:05;17.33;;;7.05;;
73699;SDS011;62005;50.082;8.988;2023-02-14T13:31:34;14.15;;;5.28;;
73699;SDS011;62005;50.082;8.988;2023-02-14T13:36:40;14.38;;;6.15;;
73699;SDS011;62005;50.082;8.988;2023-02-14T13:39:08;16.35;;;6.47;;
73699;SDS011;62005;50.082;8.988;2023-02-14T13:41:42;15.43;;;6.50;;
73699;SDS011;62005;50.082;8.988;2023-02-14T13:44:08;15.25;;;6.03;;
73699;SDS011;62005;50.082;8.988;2023-02-14T13:49:00;17.43;;;6.87;;
73699;SDS011;62005;50.082;8.988;2023-02-14T13:51:52;13.40;;;6.00;;
73699;SDS011;62005;50.082;8.988;2023-02-14T13:57:27;11.88;;;5.53;;
73699;SDS011;62005;50.082;8.988;2023-02-14T14:02:49;13.73;;;6.05;;
73699;SDS011;62005;50.082;8.988;2023-02-14T14:05:42;15.15;;;6.50;;
73699;SDS011;62005;50.082;8.988;2023-02-14T14:10:49;11.30;;;5.05;;
73699;SDS011;62005;50.082;8.988;2023-02-14T14:18:58;13.73;;;5.63;;
73699;SDS011;62005;50.082;8.988;2023-02-14T14:21:38;14.27;;;5.30;;
73699;SDS011;62005;50.082;8.988;2023-02-14T14:24:22;15.45;;;8.75;;
73699;SDS011;62005;50.082;8.988;2023-02-14T14:26:58;12.93;;;5.63;;
73699;SDS011;62005;50.082;8.988;2023-02-14T14:29:29;11.90;;;4.93;;
73699;SDS011;62005;50.082;8.988;2023-02-14T14:32:16;12.07;;;5.78;;
73699;SDS011;62005;50.082;8.988;2023-02-14T14:34:49;14.30;;;5.40;;
73699;SDS011;62005;50.082;8.988;2023-02-14T14:37:17;12.75;;;5.70;;
73699;SDS011;62005;50.082;8.988;2023-02-14T14:39:52;13.88;;;5.72;;
73699;SDS011;62005;50.082;8.988;2023-02-14T14:42:20;19.08;;;9.20;;
73699;SDS011;62005;50.082;8.988;2023-02-14T14:47:22;14.40;;;6.72;;
73699;SDS011;62005;50.082;8.988;2023-02-14T14:49:50;15.40;;;6.88;;
73699;SDS011;62005;50.082;8.988;2023-02-14T14:52:22;12.68;;;5.80;;
73699;SDS011;62005;50.082;8.988;2023-02-14T14:54:53;26.50;;;10.38;;
73699;SDS011;62005;50.082;8.988;2023-02-14T14:57:19;15.02;;;5.18;;
73699;SDS011;62005;50.082;8.988;2023-02-14T14:59:45;41.00;;;12.75;;
73699;SDS011;62005;50.082;8.988;2023-02-14T15:02:20;37.50;;;12.20;;
73699;SDS011;62005;50.082;8.988;2023-02-14T15:04:50;16.85;;;6.85;;
73699;SDS011;62005;50.082;8.988;2023-02-14T15:07:31;13.88;;;6.18;;
73699;SDS011;62005;50.082;8.988;2023-02-14T15:09:58;15.82;;;6.13;;
73699;SDS011;62005;50.082;8.988;2023-02-14T15:12:24;14.18;;;5.78;;
73699;SDS011;62005;50.082;8.988;2023-02-14T15:15:12;13.70;;;5.57;;
73699;SDS011;62005;50.082;8.988;2023-02-14T15:17:40;14.60;;;5.75;;
73699;SDS011;62005;50.082;8.988;2023-02-14T15:20:14;15.30;;;6.28;;
73699;SDS011;62005;50.082;8.988;2023-02-14T15:22:43;13.82;;;6.53;;
73699;SDS011;62005;50.082;8.988;2023-02-14T15:27:57;12.63;;;6.30;;
73699;SDS011;62005;50.082;8.988;2023-02-14T15:30:25;14.60;;;6.35;;
73699;SDS011;62005;50.082;8.988;2023-02-14T15:32:58;14.70;;;7.47;;
73699;SDS011;62005;50.082;8.988;2023-02-14T15:35:30;13.40;;;6.07;;
73699;SDS011;62005;50.082;8.988;2023-02-14T15:37:57;15.82;;;6.57;;
73699;SDS011;62005;50.082;8.988;2023-02-14T15:40:27;13.63;;;5.82;;
73699;SDS011;62005;50.082;8.988;2023-02-14T15:45:41;17.25;;;6.55;;
73699;SDS011;62005;50.082;8.988;2023-02-14T15:48:29;14.05;;;7.07;;
73699;SDS011;62005;50.082;8.988;2023-02-14T15:50:57;20.73;;;7.22;;
73699;SDS011;62005;50.082;8.988;2023-02-14T15:53:38;15.23;;;7.28;;
73699;SDS011;62005;50.082;8.988;2023-02-14T15:58:45;14.50;;;6.03;;
73699;SDS011;62005;50.082;8.988;2023-02-14T16:01:11;15.60;;;6.30;;
73699;SDS011;62005;50.082;8.988;2023-02-14T16:03:38;13.77;;;6.05;;
73699;SDS011;62005;50.082;8.988;2023-02-14T16:06:29;14.35;;;6.03;;
73699;SDS011;62005;50.082;8.988;2023-02-14T16:08:55;35.17;;;13.13;;
73699;SDS011;62005;50.082;8.988;2023-02-14T16:11:26;36.25;;;12.52;;
73699;SDS011;62005;50.082;8.988;2023-02-14T16:13:54;20.67;;;8.27;;
73699;SDS011;62005;50.082;8.988;2023-02-14T16:16:19;19.58;;;8.32;;
73699;SDS011;62005;50.082;8.988;2023-02-14T16:18:49;18.40;;;7.57;;
73699;SDS011;62005;50.082;8.988;2023-02-14T16:21:27;17.42;;;7.05;;
73699;SDS011;62005;50.082;8.988;2023-02-14T16:26:29;16.27;;;6.45;;
73699;SDS011;62005;50.082;8.988;2023-02-14T16:28:55;15.77;;;7.25;;
73699;SDS011;62005;50.082;8.988;2023-02-14T16:31:21;19.85;;;8.75;;
73699;SDS011;62005;50.082;8.988;2023-02-14T16:33:46;18.45;;;8.13;;
73699;SDS011;62005;50.082;8.988;2023-02-14T16:36:22;15.77;;;6.70;;
73699;SDS011;62005;50.082;8.988;2023-02-14T16:38:51;17.42;;;7.00;;
73699;SDS011;62005;50.082;8.988;2023-02-14T16:41:18;16.50;;;7.50;;
73699;SDS011;62005;50.082;8.988;2023-02-14T16:43:48;15.18;;;6.57;;
73699;SDS011;62005;50.082;8.988;2023-02-14T16:46:15;18.95;;;7.35;;
73699;SDS011;62005;50.082;8.988;2023-02-14T16:48:45;18.05;;;7.45;;
73699;SDS011;62005;50.082;8.988;2023-02-14T16:51:14;17.40;;;7.43;;
73699;SDS011;62005;50.082;8.988;2023-02-14T16:53:40;20.38;;;8.48;;
73699;SDS011;62005;50.082;8.988;2023-02-14T16:56:18;22.27;;;10.18;;
73699;SDS011;62005;50.082;8.988;2023-02-14T16:58:47;21.35;;;8.57;;
73699;SDS011;62005;50.082;8.988;2023-02-14T17:01:13;21.08;;;9.70;;
73699;SDS011;62005;50.082;8.988;2023-02-14T17:03:39;22.65;;;10.75;;
73699;SDS011;62005;50.082;8.988;2023-02-14T17:06:06;21.23;;;8.07;;
73699;SDS011;62005;50.082;8.988;2023-02-14T17:08:42;24.77;;;10.63;;
73699;SDS011;62005;50.082;8.988;2023-02-14T17:11:15;18.70;;;7.22;;
73699;SDS011;62005;50.082;8.988;2023-02-14T17:13:45;23.02;;;10.00;;
73699;SDS011;62005;50.082;8.988;2023-02-14T17:16:11;18.88;;;9.25;;
73699;SDS011;62005;50.082;8.988;2023-02-14T17:18:41;22.65;;;10.00;;
73699;SDS011;62005;50.082;8.988;2023-02-14T17:21:11;24.85;;;13.00;;
73699;SDS011;62005;50.082;8.988;2023-02-14T17:23:37;17.55;;;8.18;;
73699;SDS011;62005;50.082;8.988;2023-02-14T17:26:03;25.77;;;11.38;;
73699;SDS011;62005;50.082;8.988;2023-02-14T17:28:29;18.30;;;8.10;;
73699;SDS011;62005;50.082;8.988;2023-02-14T17:31:01;16.20;;;7.18;;
73699;SDS011;62005;50.082;8.988;2023-02-14T17:36:48;16.48;;;6.55;;